Terminal Aerodrome Forecast
Issued by NWS

Home | Current Version | Previous Version | Text Only | Print | Product List | Glossary On
Versions: 1 2 3 4 5 6 7 8 9 10 11 12 13 14 15 16
170
FTUS44 KTSA 282340
TAFBVO
TAF
KBVO 282340Z 2900/2924 08006KT P6SM SCT040 BKN250
      TEMPO 2905/2909 5SM -TSRA BR BKN025CB
     FM290900 02010KT 5SM -TSRA BR OVC007CB=

USA.gov is the U.S. government's official web portal to all federal, state and local government web resources and services.